Report METAR

 

LIPQ - Ronchi Legionari, Italy
Distance from station: SSO 4km
Dati ricevuti: 27/07/2017 04:20
Parz. nuvoloso
Parz. nuvoloso
 Vento da NNO
Vento: NNO 6 km/h
Temperatura: 15°C
P.to Rugiada: 13°C
Umidità: 88%
Barometro: 1008 hPa
Nuvole: Parz. nuvoloso
Visibility: 10 km
Cloud details: Parz. nuvoloso 2134 m
2017/07/27 04:20 LIPQ 270420Z 34003KT 9999 SCT070 15/13 Q1008
LIVT - Trieste, Italy
Distance from station: SE 27km
Dati ricevuti: 27/07/2017 03:55
Sereno
Sereno
 Vento da NE
Vento: NE 4 km/h
Temperatura: 19°C
P.to Rugiada: 8°C
Umidità: 49%
Barometro: 1007 hPa
Summary: Sereno
Visibility: superiore a 10 km
2017/07/27 03:55 LIVT 270355Z 05002KT CAVOK 19/08 Q1007 RMK SCT SCT080 QUK 0 QUL 0 VIS MAR 20 KM VIS MIN 9999
 
LIPI - Rivolto (it-Afb), Italy
Distance from station: ONO 37km
Dati ricevuti: 27/07/2017 03:55
Parz. nuvoloso
Parz. nuvoloso
 Vento da Variabile
Vento: Variabile 0 km/h
Temperatura: 16°C
P.to Rugiada: 13°C
Umidità: 83%
Barometro: 1009 hPa
Nuvole: Parz. nuvoloso
Visibility: 10 km
Cloud details: Parz. nuvoloso 3048 m
2017/07/27 03:55 LIPI 270355Z /////KT 9999 SCT100 16/13 Q1009 RMK SCT VIS MIN 9999 WIND THR06 16002KT WIND THR24 10002KT BLU
LJPZ - Portoroz, Slovenia
Distance from station: SSE 43km
Dati ricevuti: 27/07/2017 04:30
Sereno
Sereno
 Vento da ESE
Vento: ESE 17 km/h
Temperatura: 15°C
P.to Rugiada: 12°C
Umidità: 82%
Barometro: 1008 hPa
Summary: Sereno
Visibility: superiore a 10 km
2017/07/27 04:30 LJPZ 270430Z 12009KT CAVOK 15/12 Q1008
 
LIPA - Aviano (it/Us-Af, Italy
Distance from station: ONO 73km
Dati ricevuti: 27/07/2017 03:55
Molto nuvoloso
Molto nuvoloso
 Vento da N
Vento: N 6 km/h
Temperatura: 16°C
P.to Rugiada: 13°C
Umidità: 83%
Barometro: 1008 hPa
Nuvole: Molto nuvoloso
Visibility: 10 km
Cloud details: Molto nuvoloso 2743 m
2017/07/27 03:55 LIPA 270355Z 01003KT 9999 BKN090 16/13 Q1008 RMK BKN VIS MIN 9999 WIND THR05 29004KT WIND THR23 31005KT A2980 BLU
LIVO - Tarvisio, Italy
Distance from station: N 73km
Dati ricevuti: 26/07/2017 17:55
DATI Obsoleti
Parz. nuvoloso
Parz. nuvoloso
 Vento da calmo
Vento: Calma
Temperatura: 16°C
P.to Rugiada: 14°C
Umidità: 88%
Barometro: 1007 hPa
Nuvole: Parz. nuvoloso
Visibility: 10 km
Cloud details: Parz. nuvoloso 1372 m
2017/07/26 17:55 LIVO 261755Z 00000KT 9999 SCT045 16/14 Q1007
 
LJLJ - Ljubljana/Brnik, Slovenia
Distance from station: ENE 86km
Dati ricevuti: 27/07/2017 04:30
Pioggia leggera, Nuvoloso
Pioggia leggera, Nuvoloso
 Vento da Variabile
Vento: Variabile 2 km/h
Temperatura: 13°C
P.to Rugiada: 12°C
Umidità: 94%
Barometro: 1010 hPa
Summary: Pioggia leggera
Nuvole: Molto nuvoloso
Visibility: 10 km
Cloud details: Few Clouds 1524 m
Parz. nuvoloso 2225 m
Molto nuvoloso 2743 m
2017/07/27 04:30 LJLJ 270430Z VRB01KT 9999 -RA FEW050 SCT073 BKN090 13/12 Q1010 NOSIG
LIPZ - Venezia/Tessera, Italy
Distance from station: OSO 96km
Dati ricevuti: 27/07/2017 04:20
Sereno
Sereno
 Vento da N
Vento: N 11 km/h
Temperatura: 16°C
P.to Rugiada: 14°C
Umidità: 88%
Barometro: 1008 hPa
Summary: Sereno
Visibility: superiore a 10 km
2017/07/27 04:20 LIPZ 270420Z 35006KT CAVOK 16/14 Q1008 NOSIG
 
LIPH - Treviso(Civ/It-A, Italy
Distance from station: OSO 105km
Dati ricevuti: 27/07/2017 04:20
Sereno
Sereno
 Vento da NNE
Vento: NNE 6 km/h
Temperatura: 15°C
P.to Rugiada: 14°C
Umidità: 94%
Barometro: 1009 hPa
Nuvole: Sereno
Visibility: 10 km
2017/07/27 04:20 LIPH 270420Z AUTO 02003KT 9999 NCD 15/14 Q1009
LDRI - Rijeka/Omisalj, Croatia
Distance from station: SE 109km
Dati ricevuti: 27/07/2017 04:30
Sereno
Sereno
 Vento da NE
Vento: NE 9 km/h
Temperatura: 19°C
P.to Rugiada: 15°C
Umidità: 78%
Barometro: 1009 hPa
Summary: Sereno
Visibility: superiore a 10 km
2017/07/27 04:30 LDRI 270430Z 05005KT CAVOK 19/15 Q1009
 
LOWK - Klagenfurt(Civ/M, Austria
Distance from station: NE 110km
Dati ricevuti: 27/07/2017 04:20
Molto nuvoloso
Molto nuvoloso
 Vento da NO
Vento: NO 6 km/h
Temperatura: 13°C
P.to Rugiada: 10°C
Umidità: 82%
Barometro: 1011 hPa
Nuvole: Molto nuvoloso
Visibility: 10 km
Cloud details: Few Clouds 3353 m
Molto nuvoloso 3658 m
2017/07/27 04:20 LOWK 270420Z AUTO 31003KT 9999 FEW110 BKN120 13/10 Q1011 NOSIG
LIPS - Istrana (it-Afb), Italy
Distance from station: O 111km
Dati ricevuti: 27/07/2017 03:55
Sereno
Sereno
 Vento da N
Vento: N 6 km/h
Temperatura: 16°C
P.to Rugiada: 14°C
Umidità: 88%
Barometro: 1008 hPa
Summary: Sereno
Visibility: superiore a 10 km
2017/07/27 03:55 LIPS 270355Z 36003KT CAVOK 16/14 Q1008 RMK SKC VIS MIN 9999 WIND THR26 00000KT WIND THR08 36003KT BLU
 
LDPL - Pula, Croatia
Distance from station: SSE 112km
Dati ricevuti: 27/07/2017 04:30
Sereno
Sereno
 Vento da ENE
Vento: ENE 7 km/h
Temperatura: 18°C
P.to Rugiada: 13°C
Umidità: 73%
Barometro: 1008 hPa
Summary: Sereno
Visibility: superiore a 10 km
2017/07/27 04:30 LDPL 270430Z 07004KT CAVOK 18/13 Q1008 NOSIG
LIVD - Dobbiaco, Italy
Distance from station: NO 138km
Dati ricevuti: 26/07/2017 17:55
DATI Obsoleti
Molto nuvoloso
Molto nuvoloso
 Vento da Variabile
Vento: Variabile 0 km/h
Temperatura: 15°C
P.to Rugiada: 8°C
Umidità: 63%
Barometro: 1012 hPa
Nuvole: Molto nuvoloso
Visibility: 10 km
Cloud details: Molto nuvoloso 762 m
2017/07/26 17:55 LIVD 261755Z /////KT 9999 BKN025 15/08 Q1012
 
LIPU - Padova (civ/It-A, Italy
Distance from station: OSO 139km
Dati ricevuti: 26/07/2017 06:00
DATI Obsoleti
Sereno
Sereno
 Vento da Variabile
Vento: Variabile 2 km/h
Temperatura: 20°C
P.to Rugiada: 14°C
Umidità: 69%
Barometro: 1005 hPa
Summary: Sereno
Visibility: superiore a 10 km
2017/07/26 06:00 LIPU 260600Z VRB01KT CAVOK 20/14 Q1005
LIVR - Rolle Pass, Italy
Distance from station: ONO 142km
Dati ricevuti: 27/07/2017 03:55
Sereno
Sereno
 Vento da NNO
Vento: NNO 15 km/h
Temperatura: 6°C
Temperatura Vento: 3°C
P.to Rugiada: 1°C
Umidità: 71%
Barometro: 1017 hPa
Summary: Sereno
Visibility: superiore a 10 km
2017/07/27 03:55 LIVR 270355Z 33008KT CAVOK 06/01 Q1017 RMK SCT SCT060 MON LIB VIS MIN 9999
 
LJCE - Cerklje, Slovenia
Distance from station: E 157km
Dati ricevuti: 27/07/2017 04:30
Pioggia leggera, Parz. nuvoloso
Pioggia leggera, Parz. nuvoloso
 Vento da OSO
Vento: OSO 4 km/h
Temperatura: 15°C
P.to Rugiada: 14°C
Umidità: 94%
Barometro: 1010 hPa
Summary: Pioggia leggera
Nuvole: Parz. nuvoloso
Visibility: 10 km
2017/07/27 04:30 LJCE 270430Z 25002KT 9999 -RA NSC 15/14 Q1010 RMK BLU
LDLO - Losinj Island, Croatia
Distance from station: SSE 159km
Dati ricevuti: 23/07/2017 18:00
DATI Obsoleti
Sereno
Sereno
 Vento da S
Vento: S 9 km/h
Temperatura: 27°C
Indice di Calore: 29°C
P.to Rugiada: 21°C
Umidità: 70%
Barometro: 1012 hPa
Summary: Sereno
Visibility: superiore a 10 km
2017/07/23 18:00 LDLO 231800Z 19005KT CAVOK 27/21 Q1012
 
LOXZ - Zeltweg (mil), Austria
Distance from station: NNE 179km
Dati ricevuti: 27/07/2017 03:50
Pioggia leggera, Nuvoloso
Pioggia leggera, Nuvoloso
 Vento da SO
Vento: SO 6 km/h
Temperatura: 13°C
P.to Rugiada: 9°C
Umidità: 77%
Barometro: 1012 hPa
Summary: Pioggia leggera
Nuvole: Molto nuvoloso
Cloud details: Few Clouds 1219 m
Molto nuvoloso 1524 m
2017/07/27 03:50 LOXZ 270350Z 22003KT 10KM -RA FEW040SC BKN050SC 13/09 Q1012
LIPB - Bolzano(Civ/It-A, Italy
Distance from station: ONO 181km
Dati ricevuti: 26/07/2017 20:50
DATI Obsoleti
Sereno
Sereno
 Vento da N
Vento: N 15 km/h
Temperatura: 22°C
P.to Rugiada: 6°C
Umidità: 36%
Barometro: 1009 hPa
Summary: Sereno
Visibility: superiore a 10 km
2017/07/26 20:50 LIPB 262050Z 01008KT CAVOK 22/06 Q1009